createdAt,value
2023-02-23T00:04:26.466Z,91.78
2023-02-23T00:06:53.867Z,92.48
2023-02-23T00:09:28.074Z,91.89
2023-02-23T00:11:57.445Z,92.40
2023-02-23T00:14:28.306Z,93.27
2023-02-23T00:16:56.403Z,92.39
2023-02-23T00:19:25.125Z,92.03
2023-02-23T00:21:53.127Z,92.92
2023-02-23T00:24:20.043Z,92.65
2023-02-23T00:26:48.230Z,92.63
2023-02-23T00:29:17.576Z,93.73
2023-02-23T00:31:45.689Z,93.27
2023-02-23T00:34:14.665Z,92.35
2023-02-23T00:36:43.052Z,92.92
2023-02-23T00:39:21.691Z,92.53
2023-02-23T00:41:49.449Z,91.48
2023-02-23T00:44:16.625Z,92.04
2023-02-23T00:46:44.826Z,91.20
2023-02-23T00:49:13.576Z,93.01
2023-02-23T00:51:40.373Z,92.97
2023-02-23T00:54:08.017Z,92.36
2023-02-23T00:56:34.922Z,92.83
2023-02-23T00:59:01.554Z,94.26
2023-02-23T01:01:28.274Z,94.41
2023-02-23T01:03:54.930Z,94.52
2023-02-23T01:09:05.150Z,93.54
2023-02-23T01:11:31.740Z,92.61
2023-02-23T01:14:00.705Z,92.56
2023-02-23T01:16:30.296Z,92.64
2023-02-23T01:19:00.016Z,93.80
2023-02-23T01:21:32.666Z,94.26
2023-02-23T01:23:59.578Z,94.85
2023-02-23T01:26:29.489Z,94.92
2023-02-23T01:28:58.464Z,95.21
2023-02-23T01:31:25.795Z,95.55
2023-02-23T01:33:59.878Z,95.21
2023-02-23T01:36:29.101Z,95.01
2023-02-23T01:38:57.186Z,95.76
2023-02-23T01:41:26.965Z,96.90
2023-02-23T01:44:01.319Z,97.42
2023-02-23T01:46:30.767Z,97.19
2023-02-23T01:48:57.700Z,98.92
2023-02-23T01:51:30.350Z,99.58
2023-02-23T01:54:02.476Z,99.11
2023-02-23T01:56:33.080Z,99.30
2023-02-23T01:59:05.853Z,98.86
2023-02-23T02:01:32.526Z,100.00
2023-02-23T02:04:06.846Z,99.87
2023-02-23T02:06:35.983Z,99.42
2023-02-23T02:09:10.407Z,97.82
2023-02-23T02:11:37.536Z,96.45
2023-02-23T02:14:13.194Z,95.90
2023-02-23T02:16:45.062Z,95.42
2023-02-23T02:19:18.802Z,97.07
2023-02-23T02:21:48.312Z,98.47
2023-02-23T02:24:52.520Z,98.57
2023-02-23T02:27:29.486Z,97.42
2023-02-23T02:30:05.544Z,95.98
2023-02-23T02:32:47.740Z,96.60
2023-02-23T02:35:41.758Z,96.79
2023-02-23T02:38:29.804Z,97.14
2023-02-23T02:41:13.726Z,97.50
2023-02-23T02:43:51.056Z,97.80
2023-02-23T02:46:25.064Z,98.21
2023-02-23T02:49:04.069Z,98.48
2023-02-23T02:51:49.243Z,98.20
2023-02-23T02:54:31.991Z,98.09
2023-02-23T02:57:02.312Z,98.10
2023-02-23T02:59:47.415Z,98.81
2023-02-23T03:02:35.670Z,98.68
2023-02-23T03:05:21.079Z,98.62
2023-02-23T03:08:16.366Z,98.33
2023-02-23T03:11:31.625Z,99.60
2023-02-23T03:14:54.374Z,100.00
2023-02-23T03:18:04.397Z,100.00
2023-02-23T03:20:52.675Z,100.00
2023-02-23T03:24:03.066Z,100.00
2023-02-23T03:26:59.595Z,100.00
2023-02-23T03:30:18.289Z,100.00
2023-02-23T03:33:09.512Z,100.00
2023-02-23T03:36:13.889Z,100.00
2023-02-23T03:39:03.022Z,100.00
2023-02-23T03:41:52.196Z,100.00
2023-02-23T03:44:44.154Z,100.00
2023-02-23T03:47:31.482Z,100.00
2023-02-23T03:50:19.771Z,100.00
2023-02-23T03:53:11.223Z,100.00
2023-02-23T03:55:59.387Z,100.00
2023-02-23T03:58:55.905Z,100.00
2023-02-23T04:01:44.270Z,100.00
2023-02-23T04:04:30.046Z,100.00
2023-02-23T04:07:18.086Z,100.00
2023-02-23T04:10:03.458Z,100.00
2023-02-23T04:13:03.587Z,100.00
2023-02-23T04:15:39.216Z,100.00
2023-02-23T04:18:08.197Z,100.00
2023-02-23T04:20:35.358Z,100.00
2023-02-23T04:23:02.157Z,100.00
2023-02-23T04:28:03.635Z,100.00
2023-02-23T04:30:30.453Z,100.00
2023-02-23T04:32:58.766Z,100.00
2023-02-23T04:35:27.893Z,100.00
2023-02-23T04:37:54.983Z,100.00
2023-02-23T04:40:24.194Z,100.00
2023-02-23T04:42:51.213Z,100.00
2023-02-23T04:45:17.768Z,100.00
2023-02-23T04:47:44.855Z,100.00
2023-02-23T04:50:12.914Z,100.00
2023-02-23T04:52:39.817Z,100.00
2023-02-23T04:55:09.088Z,100.00
2023-02-23T04:57:35.812Z,100.00
2023-02-23T05:00:04.479Z,100.00
2023-02-23T05:02:32.155Z,100.00
2023-02-23T05:04:58.805Z,100.00
2023-02-23T05:07:25.509Z,100.00
2023-02-23T05:09:52.105Z,100.00
2023-02-23T05:12:18.663Z,100.00
2023-02-23T05:14:45.185Z,100.00
2023-02-23T05:17:11.696Z,100.00
2023-02-23T05:19:38.273Z,100.00
2023-02-23T05:22:04.809Z,100.00
2023-02-23T05:24:31.409Z,100.00
2023-02-23T05:26:58.960Z,100.00
2023-02-23T05:29:25.528Z,100.00
2023-02-23T05:31:52.171Z,100.00
2023-02-23T05:34:18.834Z,100.00
2023-02-23T05:36:45.367Z,100.00
2023-02-23T05:39:11.899Z,100.00
2023-02-23T05:41:38.448Z,100.00
2023-02-23T05:44:05.181Z,100.00
2023-02-23T05:46:31.945Z,100.00
2023-02-23T05:49:00.905Z,100.00
2023-02-23T05:51:30.114Z,100.00
2023-02-23T05:53:56.644Z,100.00
2023-02-23T05:56:23.561Z,100.00
2023-02-23T05:58:52.064Z,100.00
2023-02-23T06:01:19.455Z,100.00
2023-02-23T06:03:47.201Z,100.00
2023-02-23T06:06:14.325Z,100.00
2023-02-23T06:08:41.305Z,100.00
2023-02-23T06:11:08.214Z,100.00
2023-02-23T06:13:34.948Z,100.00
2023-02-23T06:16:02.001Z,100.00
2023-02-23T06:18:29.444Z,100.00
2023-02-23T06:20:59.490Z,100.00
2023-02-23T06:23:26.098Z,100.00
2023-02-23T06:25:52.614Z,100.00
2023-02-23T06:28:19.160Z,100.00
2023-02-23T06:30:46.812Z,100.00
2023-02-23T06:33:13.438Z,100.00
2023-02-23T06:35:40.080Z,100.00
2023-02-23T06:38:06.832Z,100.00
2023-02-23T06:40:33.648Z,100.00
2023-02-23T06:43:00.666Z,100.00
2023-02-23T06:45:27.187Z,100.00
2023-02-23T06:47:53.945Z,100.00
2023-02-23T06:50:20.722Z,100.00
2023-02-23T06:52:47.349Z,100.00
2023-02-23T06:55:14.712Z,100.00
2023-02-23T06:57:41.667Z,100.00
2023-02-23T07:00:15.268Z,100.00
2023-02-23T07:02:42.149Z,100.00
2023-02-23T07:05:09.215Z,100.00
2023-02-23T07:07:36.122Z,100.00
2023-02-23T07:10:02.878Z,100.00
2023-02-23T07:12:30.297Z,100.00
2023-02-23T07:14:57.008Z,100.00
2023-02-23T07:17:24.059Z,100.00
2023-02-23T07:19:50.563Z,100.00
2023-02-23T07:22:17.086Z,100.00
2023-02-23T07:24:43.677Z,100.00
2023-02-23T07:27:10.190Z,100.00
2023-02-23T07:29:36.755Z,100.00
2023-02-23T07:32:03.552Z,100.00
2023-02-23T07:34:30.125Z,100.00
2023-02-23T07:36:56.750Z,100.00
2023-02-23T07:39:23.265Z,100.00
2023-02-23T07:44:23.088Z,100.00
2023-02-23T07:49:22.942Z,100.00
2023-02-23T07:54:21.999Z,100.00
2023-02-23T07:56:48.515Z,100.00
2023-02-23T07:59:15.406Z,100.00
2023-02-23T08:01:41.923Z,100.00
2023-02-23T08:04:08.724Z,100.00
2023-02-23T08:06:35.339Z,100.00
2023-02-23T08:09:04.038Z,100.00
2023-02-23T08:11:31.089Z,100.00
2023-02-23T08:14:00.363Z,100.00
2023-02-23T08:16:32.438Z,100.00
2023-02-23T08:19:01.028Z,100.00
2023-02-23T08:21:29.638Z,100.00
2023-02-23T08:26:31.027Z,100.00
2023-02-23T08:31:36.061Z,100.00
2023-02-23T08:34:02.835Z,100.00
2023-02-23T08:39:00.865Z,100.00
2023-02-23T08:41:27.802Z,100.00
2023-02-23T08:43:54.462Z,100.00
2023-02-23T08:46:21.018Z,100.00
2023-02-23T08:48:47.581Z,100.00
2023-02-23T08:51:17.328Z,100.00
2023-02-23T08:53:43.945Z,100.00
2023-02-23T08:56:11.485Z,100.00
2023-02-23T08:58:38.002Z,100.00
2023-02-23T09:01:05.695Z,100.00
2023-02-23T09:03:35.833Z,99.67
2023-02-23T09:06:12.838Z,99.50
2023-02-23T09:08:39.726Z,97.64
2023-02-23T09:11:06.639Z,98.82
2023-02-23T09:13:33.313Z,98.33
2023-02-23T09:15:59.848Z,99.54
2023-02-23T09:18:28.042Z,98.41
2023-02-23T09:20:54.577Z,99.17
2023-02-23T09:23:21.293Z,99.10
2023-02-23T09:25:47.791Z,99.07
2023-02-23T09:28:16.320Z,98.51
2023-02-23T09:30:44.668Z,99.43
2023-02-23T09:33:12.209Z,98.66
2023-02-23T09:35:39.868Z,97.56
2023-02-23T09:40:53.214Z,96.96
2023-02-23T09:43:45.234Z,96.62
2023-02-23T09:46:34.092Z,96.76
2023-02-23T09:49:03.935Z,94.87
2023-02-23T09:51:37.766Z,94.68
2023-02-23T09:54:06.175Z,94.91
2023-02-23T09:56:37.391Z,94.45
2023-02-23T09:59:12.210Z,95.70
2023-02-23T10:01:47.756Z,95.24
2023-02-23T10:04:25.978Z,95.42
2023-02-23T10:07:21.221Z,95.61
2023-02-23T10:10:00.275Z,95.23
2023-02-23T10:12:50.383Z,93.95
2023-02-23T10:15:45.587Z,92.93
2023-02-23T10:18:21.622Z,92.34
2023-02-23T10:21:04.844Z,91.61
2023-02-23T10:23:42.836Z,90.96
2023-02-23T10:26:16.325Z,90.91
2023-02-23T10:28:45.422Z,89.47
2023-02-23T10:31:27.818Z,89.06
2023-02-23T10:33:58.727Z,88.44
2023-02-23T10:36:37.798Z,87.53
2023-02-23T10:39:07.681Z,87.53
2023-02-23T10:41:37.054Z,85.64
2023-02-23T10:46:40.469Z,84.95
2023-02-23T10:49:14.257Z,83.48
2023-02-23T10:51:43.216Z,83.01
2023-02-23T10:54:36.854Z,81.41
2023-02-23T10:57:05.759Z,80.72
2023-02-23T10:59:33.196Z,82.34
2023-02-23T11:02:02.603Z,84.41
2023-02-23T11:04:35.140Z,83.18
2023-02-23T11:07:21.656Z,83.04
2023-02-23T11:09:49.578Z,82.55
2023-02-23T11:12:29.757Z,84.32
2023-02-23T11:14:57.679Z,84.12
2023-02-23T11:17:34.937Z,81.16
2023-02-23T11:20:07.533Z,82.14
2023-02-23T11:25:31.804Z,82.78
2023-02-23T11:27:59.344Z,82.85
2023-02-23T11:30:37.292Z,82.27
2023-02-23T11:33:12.166Z,80.48
2023-02-23T11:35:38.980Z,81.44
2023-02-23T11:38:22.430Z,82.53
2023-02-23T11:41:21.359Z,80.60
2023-02-23T11:46:32.918Z,80.22
2023-02-23T11:49:22.747Z,80.38
2023-02-23T11:51:50.878Z,80.62
2023-02-23T11:54:33.472Z,78.82
2023-02-23T11:57:02.808Z,79.13
2023-02-23T11:59:35.174Z,77.87
2023-02-23T12:02:26.759Z,76.73
2023-02-23T12:05:06.688Z,75.91
2023-02-23T12:07:44.609Z,75.05
2023-02-23T12:10:20.188Z,75.02
2023-02-23T12:15:40.650Z,75.23
2023-02-23T12:21:00.693Z,74.54
2023-02-23T12:23:33.663Z,74.60
2023-02-23T12:26:09.473Z,73.53
2023-02-23T12:29:18.209Z,71.83
2023-02-23T12:31:50.091Z,70.75
2023-02-23T12:34:27.130Z,70.93
2023-02-23T12:37:07.605Z,71.42
2023-02-23T12:39:43.302Z,68.25
2023-02-23T12:42:38.701Z,68.31
2023-02-23T12:45:13.549Z,66.23
2023-02-23T12:48:01.127Z,67.30
2023-02-23T12:50:35.712Z,65.32
2023-02-23T12:53:17.163Z,64.97
2023-02-23T12:55:53.795Z,66.48
2023-02-23T12:58:38.276Z,66.00
2023-02-23T13:01:10.949Z,68.18
2023-02-23T13:03:49.390Z,67.76
2023-02-23T13:06:35.430Z,70.00
2023-02-23T13:09:43.473Z,71.42
2023-02-23T13:12:12.925Z,71.54
2023-02-23T13:23:06.526Z,73.72
2023-02-23T13:25:41.882Z,73.88
2023-02-23T13:28:17.920Z,74.63
2023-02-23T13:30:47.716Z,75.97
2023-02-23T13:33:41.865Z,74.95
2023-02-23T13:36:13.010Z,75.23
2023-02-23T13:38:55.684Z,76.43
2023-02-23T13:41:36.309Z,76.13
2023-02-23T13:44:26.884Z,75.45
2023-02-23T13:46:56.390Z,74.72
2023-02-23T13:49:31.738Z,75.83
2023-02-23T13:52:09.030Z,76.57
2023-02-23T13:54:36.788Z,76.75
2023-02-23T13:57:12.484Z,75.78
2023-02-23T13:59:43.700Z,77.72
2023-02-23T14:02:34.808Z,76.06
2023-02-23T14:05:27.862Z,76.28
2023-02-23T14:08:02.566Z,75.36
2023-02-23T14:10:38.632Z,74.76
2023-02-23T14:13:05.172Z,73.45
2023-02-23T14:15:31.860Z,72.68
2023-02-23T14:18:22.635Z,72.51
2023-02-23T14:21:09.634Z,73.49
2023-02-23T14:24:03.353Z,74.88
2023-02-23T14:26:29.858Z,73.48
2023-02-23T14:29:15.053Z,73.89
2023-02-23T14:31:54.832Z,73.90
2023-02-23T14:34:24.404Z,73.32
2023-02-23T14:36:56.645Z,72.43
2023-02-23T14:39:26.125Z,72.17
2023-02-23T14:41:59.076Z,71.38
2023-02-23T14:44:36.477Z,71.44
2023-02-23T14:49:54.949Z,72.03
2023-02-23T14:52:25.068Z,72.04
2023-02-23T14:54:52.711Z,71.60
2023-02-23T14:57:25.488Z,72.45
2023-02-23T14:59:59.650Z,72.58
2023-02-23T15:02:28.720Z,73.34
2023-02-23T15:04:56.349Z,72.91
2023-02-23T15:07:38.360Z,72.55
2023-02-23T15:10:12.652Z,73.17
2023-02-23T15:12:39.456Z,72.60
2023-02-23T15:15:17.528Z,72.09
2023-02-23T15:17:47.788Z,72.35
2023-02-23T15:20:18.549Z,73.90
2023-02-23T15:22:53.854Z,73.90
2023-02-23T15:25:41.169Z,74.94
2023-02-23T15:28:34.562Z,75.35
2023-02-23T15:31:02.743Z,75.84
2023-02-23T15:33:29.375Z,76.27
2023-02-23T15:36:15.485Z,76.50
2023-02-23T15:38:49.620Z,75.41
2023-02-23T15:41:29.895Z,75.89
2023-02-23T15:46:41.619Z,76.61
2023-02-23T15:49:12.599Z,77.12
2023-02-23T15:54:26.086Z,77.43
2023-02-23T15:56:57.804Z,77.63
2023-02-23T15:59:30.975Z,78.46
2023-02-23T16:02:00.337Z,79.15
2023-02-23T16:04:32.729Z,78.87
2023-02-23T16:07:16.467Z,79.68
2023-02-23T16:09:51.581Z,79.92
2023-02-23T16:12:22.204Z,80.56
2023-02-23T16:14:55.732Z,80.92
2023-02-23T16:17:28.438Z,81.24
2023-02-23T16:20:11.329Z,80.67
2023-02-23T16:22:40.052Z,80.77
2023-02-23T16:25:12.553Z,80.87
2023-02-23T16:27:39.480Z,80.91
2023-02-23T16:30:34.282Z,81.12
2023-02-23T16:33:05.853Z,80.96
2023-02-23T16:35:39.612Z,80.89
2023-02-23T16:38:22.547Z,82.24
2023-02-23T16:40:49.176Z,82.50
2023-02-23T16:43:15.899Z,82.77
2023-02-23T16:45:43.805Z,83.06
2023-02-23T16:48:15.322Z,83.09
2023-02-23T16:50:42.609Z,83.42
2023-02-23T16:53:11.377Z,84.84
2023-02-23T16:55:40.982Z,84.43
2023-02-23T16:58:15.290Z,84.32
2023-02-23T17:00:43.567Z,84.43
2023-02-23T17:03:30.420Z,84.77
2023-02-23T17:05:57.188Z,85.57
2023-02-23T17:08:24.566Z,85.85
2023-02-23T17:10:54.354Z,85.61
2023-02-23T17:13:26.415Z,85.55
2023-02-23T17:15:56.301Z,86.04
2023-02-23T17:21:14.476Z,86.10
2023-02-23T17:23:51.316Z,86.16
2023-02-23T17:26:21.173Z,86.90
2023-02-23T17:28:48.555Z,86.83
2023-02-23T17:31:17.446Z,87.95
2023-02-23T17:33:45.392Z,88.19
2023-02-23T17:36:14.513Z,88.70
2023-02-23T17:38:44.668Z,87.73
2023-02-23T17:41:16.784Z,88.27
2023-02-23T17:43:43.671Z,88.32
2023-02-23T17:46:10.679Z,88.20
2023-02-23T17:51:10.275Z,88.90
2023-02-23T17:53:37.032Z,88.53
2023-02-23T17:56:04.460Z,89.01
2023-02-23T17:58:31.153Z,89.70
2023-02-23T18:00:59.833Z,89.15
2023-02-23T18:03:32.179Z,89.87
2023-02-23T18:06:04.238Z,89.60
2023-02-23T18:08:31.234Z,89.76
2023-02-23T18:10:58.494Z,89.85
2023-02-23T18:13:26.527Z,90.31
2023-02-23T18:15:55.894Z,91.01
2023-02-23T18:18:24.185Z,90.49
2023-02-23T18:21:00.502Z,90.75
2023-02-23T18:23:36.002Z,91.29
2023-02-23T18:26:14.709Z,91.75
2023-02-23T18:28:44.454Z,92.54
2023-02-23T18:31:15.792Z,95.54
2023-02-23T18:33:42.708Z,97.22
2023-02-23T18:36:17.782Z,99.95
2023-02-23T18:38:44.506Z,100.00
2023-02-23T18:41:11.817Z,100.00
2023-02-23T18:43:38.501Z,100.00
2023-02-23T18:46:07.308Z,100.00
2023-02-23T18:48:34.021Z,100.00
2023-02-23T18:51:00.547Z,100.00
2023-02-23T18:53:27.597Z,100.00
2023-02-23T18:58:27.829Z,100.00
2023-02-23T19:00:55.202Z,100.00
2023-02-23T19:03:21.846Z,100.00
2023-02-23T19:05:53.061Z,100.00
2023-02-23T19:08:20.691Z,100.00
2023-02-23T19:10:48.552Z,100.00
2023-02-23T19:13:15.407Z,100.00
2023-02-23T19:15:43.797Z,100.00
2023-02-23T19:18:10.381Z,100.00
2023-02-23T19:23:10.091Z,100.00
2023-02-23T19:25:36.671Z,100.00
2023-02-23T19:28:03.179Z,100.00
2023-02-23T19:30:29.739Z,100.00
2023-02-23T19:32:57.290Z,100.00
2023-02-23T19:35:25.115Z,100.00
2023-02-23T19:37:52.950Z,100.00
2023-02-23T19:40:22.806Z,100.00
2023-02-23T19:42:51.206Z,100.00
2023-02-23T19:45:18.374Z,100.00
2023-02-23T19:47:45.118Z,100.00
2023-02-23T19:50:13.296Z,100.00
2023-02-23T19:52:39.898Z,100.00
2023-02-23T19:57:38.960Z,100.00
2023-02-23T20:00:11.695Z,100.00
2023-02-23T20:02:42.800Z,100.00
2023-02-23T20:05:13.714Z,100.00
2023-02-23T20:07:40.375Z,100.00
2023-02-23T20:10:08.501Z,100.00
2023-02-23T20:12:36.010Z,100.00
2023-02-23T20:15:03.426Z,100.00
2023-02-23T20:17:30.002Z,100.00
2023-02-23T20:19:56.585Z,100.00
2023-02-23T20:22:23.740Z,100.00
2023-02-23T20:24:50.295Z,100.00
2023-02-23T20:27:16.863Z,100.00
2023-02-23T20:29:44.296Z,100.00
2023-02-23T20:32:11.058Z,100.00
2023-02-23T20:34:39.279Z,100.00
2023-02-23T20:37:05.790Z,100.00
2023-02-23T20:39:32.484Z,100.00
2023-02-23T20:41:59.086Z,100.00
2023-02-23T20:44:26.082Z,100.00
2023-02-23T20:46:52.666Z,100.00
2023-02-23T20:49:19.272Z,100.00
2023-02-23T20:51:48.592Z,100.00
2023-02-23T20:54:16.037Z,100.00
2023-02-23T20:56:43.545Z,100.00
2023-02-23T20:59:13.407Z,100.00
2023-02-23T21:01:41.648Z,100.00
2023-02-23T21:04:08.923Z,100.00
2023-02-23T21:06:35.700Z,100.00
2023-02-23T21:09:17.164Z,100.00
2023-02-23T21:11:48.182Z,100.00
2023-02-23T21:14:15.587Z,100.00
2023-02-23T21:16:46.554Z,100.00
2023-02-23T21:19:14.418Z,100.00
2023-02-23T21:21:46.498Z,100.00
2023-02-23T21:24:15.108Z,100.00
2023-02-23T21:26:42.602Z,100.00
2023-02-23T21:29:11.878Z,100.00
2023-02-23T21:34:19.228Z,100.00
2023-02-23T21:36:46.569Z,100.00
2023-02-23T21:39:13.110Z,100.00
2023-02-23T21:41:39.719Z,100.00
2023-02-23T21:44:08.182Z,100.00
2023-02-23T21:46:34.946Z,100.00
2023-02-23T21:49:07.377Z,100.00
2023-02-23T21:51:34.827Z,100.00
2023-02-23T21:54:01.412Z,100.00
2023-02-23T21:59:02.694Z,100.00
2023-02-23T22:01:36.637Z,100.00
2023-02-23T22:04:05.281Z,100.00
2023-02-23T22:06:38.400Z,100.00
2023-02-23T22:11:42.584Z,100.00
2023-02-23T22:14:11.323Z,100.00
2023-02-23T22:16:39.914Z,100.00
2023-02-23T22:19:07.157Z,100.00
2023-02-23T22:21:37.478Z,100.00
2023-02-23T22:24:05.593Z,100.00
2023-02-23T22:26:34.591Z,100.00
2023-02-23T22:29:01.285Z,100.00
2023-02-23T22:33:59.761Z,100.00
2023-02-23T22:36:26.331Z,100.00
2023-02-23T22:38:52.893Z,100.00
2023-02-23T22:41:19.744Z,100.00
2023-02-23T22:43:47.183Z,100.00
2023-02-23T22:46:15.496Z,100.00
2023-02-23T22:48:45.084Z,100.00
2023-02-23T22:51:13.689Z,100.00
2023-02-23T22:53:40.583Z,100.00
2023-02-23T22:56:08.528Z,100.00
2023-02-23T22:58:36.362Z,100.00
2023-02-23T23:01:06.132Z,100.00
2023-02-23T23:03:47.667Z,100.00
2023-02-23T23:06:16.843Z,100.00
2023-02-23T23:08:45.613Z,100.00
2023-02-23T23:11:18.865Z,100.00
2023-02-23T23:13:48.573Z,100.00
2023-02-23T23:16:30.594Z,100.00
2023-02-23T23:19:12.202Z,100.00
2023-02-23T23:21:40.909Z,100.00
2023-02-23T23:24:08.083Z,100.00
2023-02-23T23:26:39.722Z,100.00
2023-02-23T23:29:10.340Z,100.00
2023-02-23T23:34:22.299Z,100.00
2023-02-23T23:36:49.930Z,100.00
2023-02-23T23:39:20.461Z,100.00
2023-02-23T23:41:50.803Z,100.00
2023-02-23T23:44:20.062Z,100.00
2023-02-23T23:49:26.003Z,100.00
2023-02-23T23:51:56.398Z,100.00
2023-02-23T23:54:31.111Z,100.00
2023-02-23T23:57:01.584Z,100.00
